Time;durP1;ratioP1;P1;durP2;ratioP2;P2;SDS_P1;SDS_P2;PMS_P1;PMS_P2;Temp;Humidity;BMP_temperature;BMP_pressure;BME280_temperature;BME280_humidity;BME280_pressure;Samples;Min_cycle;Max_cycle;Signal;HPM_P1;HPM_P2
2023/01/09 00:00:12;;;;;;;4.75;1.35;;;;;;;;;;5040392;28;20021;-80
2023/01/09 00:02:39;;;;;;;3.33;1.50;;;;;;;;;;5039841;28;20060;-80
2023/01/09 00:05:06;;;;;;;4.95;1.50;;;;;;;;;;5040488;28;20069;-80
2023/01/09 00:07:32;;;;;;;3.15;1.52;;;;;;;;;;5040290;28;20528;-80
2023/01/09 00:09:58;;;;;;;5.07;1.45;;;;;;;;;;5040830;28;20061;-79
2023/01/09 00:12:24;;;;;;;4.15;1.90;;;;;;;;;;5039538;28;20031;-79
2023/01/09 00:14:50;;;;;;;5.70;1.80;;;;;;;;;;5039728;28;20468;-79
2023/01/09 00:17:16;;;;;;;2.95;1.40;;;;;;;;;;5041080;28;20109;-80
2023/01/09 00:19:42;;;;;;;6.28;2.10;;;;;;;;;;5023951;28;20029;-80
2023/01/09 00:22:08;;;;;;;3.58;1.60;;;;;;;;;;5041387;28;20476;-80
2023/01/09 00:24:38;;;;;;;4.25;2.03;;;;;;;;;;5041032;28;20168;-80
2023/01/09 00:27:04;;;;;;;3.25;2.00;;;;;;;;;;5041652;28;20451;-80
2023/01/09 00:29:30;;;;;;;5.28;1.63;;;;;;;;;;5033516;28;20073;-80
2023/01/09 00:31:56;;;;;;;5.75;1.63;;;;;;;;;;5042681;28;20037;-80
2023/01/09 00:34:23;;;;;;;4.43;1.50;;;;;;;;;;5041185;28;20030;-80
2023/01/09 00:36:53;;;;;;;5.05;1.45;;;;;;;;;;5037733;28;20143;-80
2023/01/09 00:39:19;;;;;;;5.65;1.60;;;;;;;;;;5034990;28;20423;-80
2023/01/09 00:41:46;;;;;;;3.15;1.50;;;;;;;;;;5040044;28;20029;-80
2023/01/09 00:44:17;;;;;;;4.35;1.45;;;;;;;;;;5040594;28;20025;-79
2023/01/09 00:46:46;;;;;;;4.80;1.98;;;;;;;;;;5031086;28;20101;-80
2023/01/09 00:49:13;;;;;;;4.97;1.60;;;;;;;;;;5026385;28;20024;-80
2023/01/09 00:51:40;;;;;;;5.10;1.80;;;;;;;;;;5041349;28;20033;-79
2023/01/09 00:54:06;;;;;;;5.35;1.60;;;;;;;;;;5040645;28;20029;-80
2023/01/09 00:56:34;;;;;;;3.28;1.60;;;;;;;;;;5032442;28;20030;-80
2023/01/09 00:59:00;;;;;;;3.45;1.60;;;;;;;;;;5005897;28;20400;-80
2023/01/09 01:01:26;;;;;;;4.85;1.63;;;;;;;;;;5032593;28;20480;-80
2023/01/09 01:03:52;;;;;;;9.48;1.30;;;;;;;;;;5020979;28;20046;-79
2023/01/09 01:09:03;;;;;;;4.25;1.20;;;;;;;;;;5038385;28;20040;-79
2023/01/09 01:11:30;;;;;;;10.85;1.65;;;;;;;;;;5023963;28;20022;-80
2023/01/09 01:13:57;;;;;;;5.50;1.13;;;;;;;;;;5018570;28;20030;-80
2023/01/09 01:16:23;;;;;;;3.05;1.08;;;;;;;;;;5033071;28;20034;-80
2023/01/09 01:18:49;;;;;;;5.75;1.10;;;;;;;;;;5040334;28;20033;-79
2023/01/09 01:21:16;;;;;;;4.43;1.20;;;;;;;;;;5041581;28;20021;-79
2023/01/09 01:23:42;;;;;;;5.95;0.98;;;;;;;;;;5041419;28;20520;-79
2023/01/09 01:26:12;;;;;;;4.07;1.08;;;;;;;;;;5042221;28;20030;-80
2023/01/09 01:28:38;;;;;;;6.00;1.08;;;;;;;;;;5023656;28;20707;-79
2023/01/09 01:31:04;;;;;;;6.68;1.05;;;;;;;;;;5042207;28;20051;-79
2023/01/09 01:33:31;;;;;;;6.00;1.27;;;;;;;;;;5041861;28;20021;-79
2023/01/09 01:36:04;;;;;;;6.15;1.10;;;;;;;;;;5033598;28;20037;-80
2023/01/09 01:38:31;;;;;;;3.58;0.80;;;;;;;;;;5040881;28;20112;-79
2023/01/09 01:40:57;;;;;;;5.95;1.10;;;;;;;;;;5031114;28;20048;-80
2023/01/09 01:43:23;;;;;;;6.72;1.23;;;;;;;;;;5025464;28;20033;-80
2023/01/09 01:45:49;;;;;;;9.68;1.00;;;;;;;;;;5032610;28;20030;-80
2023/01/09 01:48:17;;;;;;;4.35;0.85;;;;;;;;;;5042769;28;20041;-79
2023/01/09 01:50:43;;;;;;;3.70;0.93;;;;;;;;;;5034995;28;20065;-80
2023/01/09 01:53:12;;;;;;;11.77;1.40;;;;;;;;;;5023939;28;20026;-80
2023/01/09 01:55:40;;;;;;;6.28;1.33;;;;;;;;;;5035034;28;20524;-79
2023/01/09 01:58:09;;;;;;;12.05;1.42;;;;;;;;;;5023986;28;20041;-80
2023/01/09 02:00:37;;;;;;;2.85;1.02;;;;;;;;;;5041034;28;20030;-80
2023/01/09 02:03:03;;;;;;;7.70;0.95;;;;;;;;;;5044893;28;20060;-80
2023/01/09 02:05:30;;;;;;;8.25;0.98;;;;;;;;;;5047854;28;20060;-80
2023/01/09 02:07:56;;;;;;;7.28;1.10;;;;;;;;;;5030370;28;20026;-80
2023/01/09 02:10:22;;;;;;;2.15;0.90;;;;;;;;;;5038166;28;20057;-80
2023/01/09 02:12:49;;;;;;;7.43;0.95;;;;;;;;;;5046837;28;20025;-80
2023/01/09 02:15:16;;;;;;;6.32;0.80;;;;;;;;;;5045425;28;20030;-80
2023/01/09 02:17:42;;;;;;;7.03;1.10;;;;;;;;;;5030431;28;20037;-79
2023/01/09 02:20:26;;;;;;;3.45;0.80;;;;;;;;;;5024632;28;20026;-80
2023/01/09 02:22:52;;;;;;;4.68;1.08;;;;;;;;;;5040831;28;20030;-80
2023/01/09 02:25:25;;;;;;;5.65;1.40;;;;;;;;;;5024679;28;20040;-80
2023/01/09 02:27:54;;;;;;;4.60;0.80;;;;;;;;;;5027903;28;20034;-80
2023/01/09 02:30:23;;;;;;;6.50;1.20;;;;;;;;;;5022617;28;20030;-79
2023/01/09 02:33:08;;;;;;;7.28;1.27;;;;;;;;;;5023426;28;20571;-80
2023/01/09 02:35:56;;;;;;;8.13;1.63;;;;;;;;;;5035368;28;20034;-80
2023/01/09 02:38:33;;;;;;;10.88;1.40;;;;;;;;;;5043745;28;20480;-80
2023/01/09 02:41:06;;;;;;;6.68;0.88;;;;;;;;;;5042622;28;20038;-80
2023/01/09 02:43:32;;;;;;;7.18;1.20;;;;;;;;;;5041122;28;20056;-80
2023/01/09 02:45:58;;;;;;;5.75;1.30;;;;;;;;;;5040591;28;20029;-79
2023/01/09 02:48:24;;;;;;;8.98;1.15;;;;;;;;;;5040859;28;20037;-79
2023/01/09 02:51:08;;;;;;;8.18;1.90;;;;;;;;;;5040620;28;20029;-80
2023/01/09 02:53:34;;;;;;;5.65;1.13;;;;;;;;;;5040678;28;20044;-79
2023/01/09 02:56:03;;;;;;;5.85;1.02;;;;;;;;;;5022448;28;20025;-79
2023/01/09 02:58:36;;;;;;;3.47;1.05;;;;;;;;;;5040243;28;20032;-80
2023/01/09 03:01:31;;;;;;;4.88;1.00;;;;;;;;;;5040653;28;20108;-80
2023/01/09 03:04:00;;;;;;;6.28;1.23;;;;;;;;;;5040598;28;20107;-79
2023/01/09 03:06:44;;;;;;;7.65;1.60;;;;;;;;;;5040245;28;20040;-79
2023/01/09 03:09:16;;;;;;;7.30;1.48;;;;;;;;;;5038253;28;20060;-80
2023/01/09 03:11:47;;;;;;;7.22;1.23;;;;;;;;;;5037694;28;20033;-79
2023/01/09 03:14:17;;;;;;;5.68;1.23;;;;;;;;;;5036988;28;20033;-80
2023/01/09 03:16:45;;;;;;;4.43;1.40;;;;;;;;;;5017586;28;20033;-79
2023/01/09 03:19:14;;;;;;;3.58;1.33;;;;;;;;;;5018295;28;20058;-79
2023/01/09 03:21:40;;;;;;;4.55;1.10;;;;;;;;;;5018064;28;20078;-80
2023/01/09 03:24:06;;;;;;;7.57;1.40;;;;;;;;;;5017957;28;20026;-79
2023/01/09 03:26:32;;;;;;;4.38;1.15;;;;;;;;;;5036064;28;20037;-79
2023/01/09 03:28:58;;;;;;;5.85;1.38;;;;;;;;;;5036550;28;20529;-79
2023/01/09 03:31:25;;;;;;;8.90;1.17;;;;;;;;;;5018137;28;20056;-79
2023/01/09 03:33:51;;;;;;;12.57;1.73;;;;;;;;;;5036471;28;20029;-80
2023/01/09 03:36:18;;;;;;;7.03;1.50;;;;;;;;;;5036363;28;20122;-79
2023/01/09 03:38:44;;;;;;;7.82;1.48;;;;;;;;;;5036777;28;20064;-79
2023/01/09 03:41:10;;;;;;;10.02;2.38;;;;;;;;;;5017929;28;20073;-79
2023/01/09 03:43:36;;;;;;;9.75;2.88;;;;;;;;;;5036750;28;20476;-79
2023/01/09 03:46:03;;;;;;;7.28;2.75;;;;;;;;;;5037433;28;20025;-79
2023/01/09 03:48:29;;;;;;;10.63;3.67;;;;;;;;;;5036518;28;20025;-79
2023/01/09 03:50:55;;;;;;;10.27;3.40;;;;;;;;;;5036254;28;20534;-79
2023/01/09 03:53:22;;;;;;;7.05;3.58;;;;;;;;;;5036648;28;20018;-79
2023/01/09 03:55:49;;;;;;;8.75;3.58;;;;;;;;;;5039626;28;20033;-79
2023/01/09 03:58:16;;;;;;;9.65;4.20;;;;;;;;;;5024103;28;20040;-79
2023/01/09 04:00:44;;;;;;;8.02;4.13;;;;;;;;;;5041725;28;20026;-79
2023/01/09 04:03:11;;;;;;;9.68;4.25;;;;;;;;;;5041764;28;20370;-80
2023/01/09 04:05:38;;;;;;;7.10;3.60;;;;;;;;;;5040863;28;20033;-79
2023/01/09 04:08:04;;;;;;;13.20;4.82;;;;;;;;;;5029307;28;20665;-80
2023/01/09 04:10:30;;;;;;;9.10;4.00;;;;;;;;;;5029883;28;20026;-79
2023/01/09 04:12:56;;;;;;;7.72;4.13;;;;;;;;;;5040055;28;20048;-80
2023/01/09 04:15:22;;;;;;;9.50;5.85;;;;;;;;;;5040802;28;20053;-79
2023/01/09 04:17:48;;;;;;;6.90;4.55;;;;;;;;;;5019900;28;20034;-79
2023/01/09 04:20:14;;;;;;;9.68;5.15;;;;;;;;;;5041200;28;20029;-80
2023/01/09 04:22:40;;;;;;;19.27;6.00;;;;;;;;;;5041068;28;20025;-80
2023/01/09 04:25:07;;;;;;;13.02;5.22;;;;;;;;;;5040982;28;20491;-80
2023/01/09 04:27:33;;;;;;;11.23;4.15;;;;;;;;;;5025751;28;20072;-79
2023/01/09 04:29:59;;;;;;;10.82;4.90;;;;;;;;;;5020409;28;20033;-79
2023/01/09 04:32:26;;;;;;;8.75;4.35;;;;;;;;;;5019978;28;20080;-80
2023/01/09 04:34:52;;;;;;;11.15;4.68;;;;;;;;;;5020238;28;20021;-79
2023/01/09 04:37:18;;;;;;;11.02;4.50;;;;;;;;;;5029736;28;20109;-80
2023/01/09 04:39:44;;;;;;;9.48;4.68;;;;;;;;;;5038558;28;20061;-80
2023/01/09 04:42:11;;;;;;;7.78;3.83;;;;;;;;;;5038432;28;20024;-79
2023/01/09 04:44:37;;;;;;;10.35;4.68;;;;;;;;;;5037289;28;20480;-79
2023/01/09 04:47:03;;;;;;;10.95;4.32;;;;;;;;;;5037486;28;20441;-80
2023/01/09 04:49:29;;;;;;;7.75;3.97;;;;;;;;;;5037698;28;20026;-80
2023/01/09 04:51:55;;;;;;;9.90;4.28;;;;;;;;;;5019370;28;20033;-79
2023/01/09 04:54:22;;;;;;;10.80;4.32;;;;;;;;;;5036773;28;20030;-80
2023/01/09 04:56:48;;;;;;;13.85;5.60;;;;;;;;;;5018711;28;20060;-79
2023/01/09 04:59:14;;;;;;;13.98;4.50;;;;;;;;;;5036582;28;20040;-80
2023/01/09 05:01:40;;;;;;;11.85;5.20;;;;;;;;;;5035793;28;20037;-79
2023/01/09 05:04:07;;;;;;;9.77;4.18;;;;;;;;;;5035625;28;20051;-79
2023/01/09 05:06:33;;;;;;;10.73;4.57;;;;;;;;;;5035530;28;20109;-79
2023/01/09 05:09:00;;;;;;;10.05;4.55;;;;;;;;;;5035922;28;20021;-79
2023/01/09 05:11:27;;;;;;;11.55;5.15;;;;;;;;;;5022436;28;20108;-79
2023/01/09 05:13:53;;;;;;;9.57;4.53;;;;;;;;;;4998731;28;20025;-79
2023/01/09 05:16:20;;;;;;;13.00;5.43;;;;;;;;;;4997911;28;20117;-79
2023/01/09 05:18:46;;;;;;;8.90;4.88;;;;;;;;;;5015264;28;20054;-78
2023/01/09 05:21:12;;;;;;;13.07;5.18;;;;;;;;;;4997268;28;20026;-78
2023/01/09 05:23:38;;;;;;;10.95;5.35;;;;;;;;;;5019305;28;20503;-78
2023/01/09 05:26:04;;;;;;;11.75;5.95;;;;;;;;;;5034207;28;20385;-78
2023/01/09 05:28:31;;;;;;;13.73;5.95;;;;;;;;;;5034499;28;20030;-78
2023/01/09 05:30:57;;;;;;;13.73;6.05;;;;;;;;;;5033496;28;20104;-79
2023/01/09 05:33:23;;;;;;;15.73;6.78;;;;;;;;;;5034409;28;20060;-78
2023/01/09 05:35:49;;;;;;;18.58;7.45;;;;;;;;;;5032217;28;20033;-79
2023/01/09 05:38:15;;;;;;;17.50;7.22;;;;;;;;;;5023847;28;20097;-78
2023/01/09 05:40:41;;;;;;;17.50;7.80;;;;;;;;;;5015378;28;20028;-78
2023/01/09 05:43:07;;;;;;;16.58;7.68;;;;;;;;;;5013722;28;20022;-77
2023/01/09 05:45:34;;;;;;;21.45;8.50;;;;;;;;;;5017775;28;20507;-76
2023/01/09 05:48:00;;;;;;;17.83;8.43;;;;;;;;;;5024654;28;20052;-77
2023/01/09 05:50:26;;;;;;;16.00;6.93;;;;;;;;;;5014408;28;20468;-78
2023/01/09 05:52:51;;;;;;;20.13;8.20;;;;;;;;;;5032886;28;20120;-77
2023/01/09 05:55:18;;;;;;;20.27;9.05;;;;;;;;;;5033207;28;20087;-78
2023/01/09 05:57:44;;;;;;;15.93;8.60;;;;;;;;;;5033678;28;20032;-79
2023/01/09 06:00:10;;;;;;;13.52;7.30;;;;;;;;;;5033472;28;20049;-79
2023/01/09 06:02:36;;;;;;;16.38;7.97;;;;;;;;;;5037429;28;20053;-79
2023/01/09 06:05:02;;;;;;;15.20;8.18;;;;;;;;;;5029178;28;20022;-79
2023/01/09 06:07:28;;;;;;;17.80;7.47;;;;;;;;;;5031833;28;20029;-79
2023/01/09 06:09:54;;;;;;;12.68;6.60;;;;;;;;;;5028855;28;20105;-80
2023/01/09 06:12:20;;;;;;;11.68;6.00;;;;;;;;;;5036242;28;20030;-79
2023/01/09 06:14:46;;;;;;;11.57;6.63;;;;;;;;;;5035873;28;20087;-79
2023/01/09 06:17:12;;;;;;;11.70;6.97;;;;;;;;;;5036288;28;20036;-79
2023/01/09 06:19:38;;;;;;;15.18;7.03;;;;;;;;;;5035978;28;20104;-79
2023/01/09 06:22:04;;;;;;;13.30;6.38;;;;;;;;;;5018265;28;20434;-79
2023/01/09 06:24:30;;;;;;;14.00;6.35;;;;;;;;;;5028334;28;20468;-79
2023/01/09 06:26:56;;;;;;;11.68;6.20;;;;;;;;;;5027723;28;20112;-79
2023/01/09 06:29:22;;;;;;;11.40;5.85;;;;;;;;;;5036079;28;20086;-79
2023/01/09 06:31:48;;;;;;;14.07;6.45;;;;;;;;;;5036207;28;20040;-79
2023/01/09 06:34:14;;;;;;;11.95;6.93;;;;;;;;;;5028196;28;20036;-78
2023/01/09 06:36:40;;;;;;;16.27;7.55;;;;;;;;;;5035934;28;20026;-78
2023/01/09 06:39:06;;;;;;;13.20;6.90;;;;;;;;;;5035965;28;20056;-78
2023/01/09 06:41:32;;;;;;;14.35;7.47;;;;;;;;;;5035988;28;20112;-78
2023/01/09 06:43:58;;;;;;;17.15;8.55;;;;;;;;;;5035433;28;20375;-78
2023/01/09 06:46:28;;;;;;;13.50;7.75;;;;;;;;;;5035187;28;20039;-78
2023/01/09 06:48:54;;;;;;;16.85;8.60;;;;;;;;;;5036384;28;20040;-78
2023/01/09 06:51:20;;;;;;;14.80;8.63;;;;;;;;;;5033050;28;20514;-78
2023/01/09 06:53:46;;;;;;;15.23;8.90;;;;;;;;;;5024668;28;20476;-78
2023/01/09 06:56:16;;;;;;;18.80;8.70;;;;;;;;;;5033719;28;20045;-78
2023/01/09 06:58:42;;;;;;;15.27;8.38;;;;;;;;;;5031825;28;20084;-79
2023/01/09 07:01:08;;;;;;;14.52;8.55;;;;;;;;;;5031421;28;20038;-78
2023/01/09 07:03:34;;;;;;;18.70;8.23;;;;;;;;;;5035180;28;20060;-79
2023/01/09 07:06:04;;;;;;;13.77;7.65;;;;;;;;;;5035151;28;20040;-78
2023/01/09 07:08:30;;;;;;;15.18;7.53;;;;;;;;;;5034633;28;20061;-78
2023/01/09 07:10:56;;;;;;;13.07;7.53;;;;;;;;;;5016841;28;20079;-78
2023/01/09 07:13:23;;;;;;;15.05;8.05;;;;;;;;;;5035266;28;20117;-78
2023/01/09 07:15:52;;;;;;;14.48;7.35;;;;;;;;;;5035557;28;20108;-79
2023/01/09 07:18:18;;;;;;;19.15;7.70;;;;;;;;;;5019184;28;20037;-78
2023/01/09 07:20:44;;;;;;;15.75;7.00;;;;;;;;;;5019017;28;20120;-78
2023/01/09 07:23:14;;;;;;;14.80;6.75;;;;;;;;;;5021074;28;20025;-78
2023/01/09 07:25:43;;;;;;;16.15;7.32;;;;;;;;;;5036150;28;20498;-78
2023/01/09 07:28:09;;;;;;;15.93;7.38;;;;;;;;;;5009904;28;20040;-78
2023/01/09 07:30:35;;;;;;;14.43;7.07;;;;;;;;;;5025149;28;20026;-78
2023/01/09 07:33:01;;;;;;;14.23;7.05;;;;;;;;;;5029378;28;20025;-78
2023/01/09 07:35:27;;;;;;;13.23;6.90;;;;;;;;;;5023670;28;20457;-78
2023/01/09 07:37:53;;;;;;;16.45;7.07;;;;;;;;;;5034609;28;20029;-78
2023/01/09 07:40:19;;;;;;;14.35;6.43;;;;;;;;;;5036938;28;20032;-78
2023/01/09 07:42:45;;;;;;;10.18;6.45;;;;;;;;;;5011004;28;20551;-78
2023/01/09 07:45:11;;;;;;;11.70;6.40;;;;;;;;;;5035323;28;20045;-78
2023/01/09 07:47:39;;;;;;;11.43;6.32;;;;;;;;;;5026998;28;20441;-78
2023/01/09 07:50:05;;;;;;;13.20;5.95;;;;;;;;;;5035608;28;20025;-78
2023/01/09 07:52:31;;;;;;;10.85;5.55;;;;;;;;;;5017506;28;20495;-78
2023/01/09 07:54:58;;;;;;;12.30;5.30;;;;;;;;;;5034200;28;20109;-78
2023/01/09 07:57:24;;;;;;;12.55;5.75;;;;;;;;;;5018556;28;20061;-78
2023/01/09 07:59:50;;;;;;;12.38;5.35;;;;;;;;;;5034608;28;20121;-79
2023/01/09 08:02:17;;;;;;;13.55;5.97;;;;;;;;;;5035356;28;20507;-79
2023/01/09 08:04:43;;;;;;;12.98;5.85;;;;;;;;;;5020380;28;20048;-79
2023/01/09 08:07:09;;;;;;;10.93;5.72;;;;;;;;;;5037760;28;20037;-78
2023/01/09 08:09:35;;;;;;;11.25;4.95;;;;;;;;;;5035428;28;20037;-78
2023/01/09 08:12:02;;;;;;;9.75;5.15;;;;;;;;;;5018019;28;20025;-79
2023/01/09 08:14:28;;;;;;;9.27;5.18;;;;;;;;;;5036268;28;20022;-79
2023/01/09 08:16:54;;;;;;;13.43;5.40;;;;;;;;;;5035142;28;20038;-78
2023/01/09 08:19:20;;;;;;;9.10;4.38;;;;;;;;;;5033399;28;20056;-78
2023/01/09 08:21:46;;;;;;;9.23;4.78;;;;;;;;;;5015708;28;20102;-78
2023/01/09 08:24:12;;;;;;;10.88;5.20;;;;;;;;;;5027010;28;20113;-78
2023/01/09 08:26:39;;;;;;;10.18;4.85;;;;;;;;;;5034729;28;20040;-79
2023/01/09 08:29:05;;;;;;;12.30;5.05;;;;;;;;;;5034782;28;20080;-78
2023/01/09 08:31:31;;;;;;;11.68;5.35;;;;;;;;;;5030242;28;20018;-78
2023/01/09 08:33:57;;;;;;;10.35;5.22;;;;;;;;;;5014632;28;20029;-78
2023/01/09 08:36:23;;;;;;;15.52;5.32;;;;;;;;;;5014791;28;20038;-78
2023/01/09 08:38:49;;;;;;;13.55;6.50;;;;;;;;;;5025675;28;20034;-79
2023/01/09 08:49:29;;;;;;;9.75;5.40;;;;;;;;;;5026998;28;20032;-78
2023/01/09 08:51:55;;;;;;;11.85;4.72;;;;;;;;;;5016459;28;20033;-79
2023/01/09 08:54:21;;;;;;;7.82;4.50;;;;;;;;;;5030591;28;20034;-79
2023/01/09 08:56:50;;;;;;;8.52;4.43;;;;;;;;;;5009221;28;20068;-78
2023/01/09 08:59:16;;;;;;;11.55;5.43;;;;;;;;;;5007451;28;20053;-79
2023/01/09 09:01:42;;;;;;;6.63;4.50;;;;;;;;;;5034927;28;20108;-78
2023/01/09 09:04:08;;;;;;;9.43;4.57;;;;;;;;;;5020365;28;20053;-78
2023/01/09 09:06:35;;;;;;;12.68;4.45;;;;;;;;;;5030046;28;20040;-78
2023/01/09 09:09:05;;;;;;;13.05;4.75;;;;;;;;;;5025378;28;20105;-78
2023/01/09 09:11:31;;;;;;;;;;;;;;;;;;5023631;28;20022;-78
2023/01/09 09:13:57;;;;;;;9.02;4.35;;;;;;;;;;5028887;28;19909;-78
2023/01/09 09:16:24;;;;;;;10.00;4.60;;;;;;;;;;5019430;28;20036;-78
2023/01/09 09:18:50;;;;;;;11.32;4.35;;;;;;;;;;5033393;28;20099;-78
2023/01/09 09:21:16;;;;;;;7.97;3.67;;;;;;;;;;5024757;28;20030;-78
2023/01/09 09:23:43;;;;;;;8.27;4.80;;;;;;;;;;5029765;28;20029;-79
2023/01/09 09:26:09;;;;;;;8.95;4.07;;;;;;;;;;5029787;28;20061;-78
2023/01/09 09:28:35;;;;;;;7.10;4.40;;;;;;;;;;5033231;28;20065;-78
2023/01/09 09:31:04;;;;;;;8.05;3.97;;;;;;;;;;5034320;28;20057;-78
2023/01/09 09:33:30;;;;;;;9.60;4.43;;;;;;;;;;5036235;28;20530;-78
2023/01/09 09:35:58;;;;;;;7.60;3.67;;;;;;;;;;5036223;28;20037;-78
2023/01/09 09:38:24;;;;;;;6.93;3.70;;;;;;;;;;5027189;28;20030;-78
2023/01/09 09:40:50;;;;;;;11.13;4.47;;;;;;;;;;5038165;28;20032;-78
2023/01/09 09:46:08;;;;;;;9.77;4.25;;;;;;;;;;5019734;28;20045;-78
2023/01/09 09:48:47;;;;;;;10.75;3.70;;;;;;;;;;5028367;28;20033;-78
2023/01/09 09:51:30;;;;;;;8.32;4.70;;;;;;;;;;5034472;28;20029;-78
2023/01/09 09:54:05;;;;;;;7.70;3.58;;;;;;;;;;5027986;28;20029;-78
2023/01/09 09:56:33;;;;;;;8.73;3.58;;;;;;;;;;5028494;28;20029;-78
2023/01/09 09:59:03;;;;;;;7.93;3.40;;;;;;;;;;5030433;28;20029;-78
2023/01/09 10:01:36;;;;;;;9.35;3.72;;;;;;;;;;5037328;28;20022;-78
2023/01/09 10:04:04;;;;;;;6.85;3.53;;;;;;;;;;5017309;28;20050;-78
2023/01/09 10:06:44;;;;;;;5.35;3.75;;;;;;;;;;5018106;28;20117;-78
2023/01/09 10:09:13;;;;;;;8.48;3.80;;;;;;;;;;5011191;28;20033;-79
2023/01/09 10:11:42;;;;;;;7.32;4.18;;;;;;;;;;5010560;28;20033;-78
2023/01/09 10:14:09;;;;;;;6.95;3.42;;;;;;;;;;5014021;28;20362;-78
2023/01/09 10:16:39;;;;;;;9.50;4.30;;;;;;;;;;5010504;28;20397;-78
2023/01/09 10:19:10;;;;;;;5.43;3.50;;;;;;;;;;5013519;28;20113;-78
2023/01/09 10:21:41;;;;;;;9.90;4.03;;;;;;;;;;5016256;28;20346;-78
2023/01/09 10:24:25;;;;;;;7.82;4.07;;;;;;;;;;5007256;28;20049;-78
2023/01/09 10:26:52;;;;;;;6.75;3.65;;;;;;;;;;5015925;28;20366;-78
2023/01/09 10:29:36;;;;;;;8.18;3.88;;;;;;;;;;5018442;28;20025;-78
2023/01/09 10:32:21;;;;;;;5.28;3.35;;;;;;;;;;5014624;28;20018;-78
2023/01/09 10:34:49;;;;;;;7.07;3.80;;;;;;;;;;5012969;28;20034;-78
2023/01/09 10:37:18;;;;;;;5.72;3.60;;;;;;;;;;5008390;28;20060;-78
2023/01/09 10:40:02;;;;;;;8.90;3.97;;;;;;;;;;5013634;28;20061;-78
2023/01/09 10:42:30;;;;;;;10.27;5.53;;;;;;;;;;5009495;28;20489;-78
2023/01/09 10:45:02;;;;;;;15.43;6.45;;;;;;;;;;5013745;28;20361;-78
2023/01/09 10:47:31;;;;;;;16.75;6.22;;;;;;;;;;5008007;28;20037;-78
2023/01/09 10:49:58;;;;;;;14.23;6.00;;;;;;;;;;5006395;28;20042;-77
2023/01/09 10:52:34;;;;;;;12.20;5.55;;;;;;;;;;5014397;28;20029;-77
2023/01/09 10:55:04;;;;;;;15.30;7.55;;;;;;;;;;5015507;28;20030;-78
2023/01/09 10:57:34;;;;;;;23.38;10.13;;;;;;;;;;5015610;28;20037;-77
2023/01/09 11:00:00;;;;;;;25.23;10.27;;;;;;;;;;5007110;28;20034;-78
2023/01/09 11:02:28;;;;;;;34.05;13.40;;;;;;;;;;5019950;28;20056;-78
2023/01/09 11:04:54;;;;;;;10.65;5.43;;;;;;;;;;5035103;28;20036;-77
2023/01/09 11:07:22;;;;;;;11.05;6.18;;;;;;;;;;5023840;28;20030;-78
2023/01/09 11:09:59;;;;;;;10.98;6.75;;;;;;;;;;5030448;28;20388;-77
2023/01/09 11:12:27;;;;;;;11.80;7.18;;;;;;;;;;5027092;28;20026;-77
2023/01/09 11:14:53;;;;;;;12.05;5.90;;;;;;;;;;5026331;28;20029;-77
2023/01/09 11:17:20;;;;;;;11.48;6.50;;;;;;;;;;5033456;28;20025;-77
2023/01/09 11:20:05;;;;;;;15.90;8.57;;;;;;;;;;5035449;28;20030;-78
2023/01/09 11:22:44;;;;;;;16.10;8.90;;;;;;;;;;4999737;28;20022;-78
2023/01/09 11:25:11;;;;;;;10.02;4.97;;;;;;;;;;5016171;28;20037;-78
2023/01/09 11:27:37;;;;;;;12.05;5.70;;;;;;;;;;5028727;28;20029;-78
2023/01/09 11:30:03;;;;;;;8.90;5.00;;;;;;;;;;5034900;28;20109;-78
2023/01/09 11:32:29;;;;;;;9.93;5.57;;;;;;;;;;5035275;28;20456;-78
2023/01/09 11:34:55;;;;;;;9.20;5.65;;;;;;;;;;5026955;28;20034;-78
2023/01/09 11:37:24;;;;;;;11.23;5.07;;;;;;;;;;5035123;28;20037;-78
2023/01/09 11:39:50;;;;;;;9.73;5.15;;;;;;;;;;5029183;28;20045;-78
2023/01/09 11:45:18;;;;;;;8.38;6.13;;;;;;;;;;5034465;28;20816;-77
2023/01/09 11:47:44;;;;;;;9.70;5.57;;;;;;;;;;5034657;28;20037;-78
2023/01/09 11:50:31;;;;;;;8.80;5.50;;;;;;;;;;5026415;28;20407;-78
2023/01/09 11:53:09;;;;;;;9.52;5.38;;;;;;;;;;5034792;28;20029;-78
2023/01/09 11:55:35;;;;;;;9.88;5.53;;;;;;;;;;5034440;28;20399;-78
2023/01/09 11:58:01;;;;;;;9.70;5.57;;;;;;;;;;5034846;28;20476;-79
2023/01/09 12:00:28;;;;;;;8.43;4.80;;;;;;;;;;5015265;28;20037;-78
2023/01/09 12:03:13;;;;;;;9.27;4.95;;;;;;;;;;5037436;28;20484;-78
2023/01/09 12:05:38;;;;;;;9.60;4.88;;;;;;;;;;5031265;28;20075;-78
2023/01/09 12:08:05;;;;;;;9.75;4.85;;;;;;;;;;5028977;28;20022;-79
2023/01/09 12:11:07;;;;;;;11.63;4.85;;;;;;;;;;5010220;28;20047;-79
2023/01/09 12:13:39;;;;;;;8.82;3.50;;;;;;;;;;4963392;28;20114;-78
2023/01/09 12:16:05;;;;;;;6.47;3.67;;;;;;;;;;5015318;28;20064;-78
2023/01/09 12:18:31;;;;;;;8.32;3.42;;;;;;;;;;5029749;28;20480;-79
2023/01/09 12:21:03;;;;;;;7.80;3.72;;;;;;;;;;5018396;28;20043;-79
2023/01/09 12:23:41;;;;;;;6.80;3.05;;;;;;;;;;5027790;28;20045;-79
2023/01/09 12:26:11;;;;;;;6.03;2.97;;;;;;;;;;5038379;28;20395;-78
2023/01/09 12:28:42;;;;;;;11.77;3.38;;;;;;;;;;5032626;28;20026;-78
2023/01/09 12:31:14;;;;;;;8.65;2.95;;;;;;;;;;5028331;28;20021;-78
2023/01/09 12:34:07;;;;;;;9.65;2.92;;;;;;;;;;5033542;28;20044;-78
2023/01/09 12:36:43;;;;;;;5.82;2.85;;;;;;;;;;5008727;28;20050;-77
2023/01/09 12:39:09;;;;;;;10.95;2.90;;;;;;;;;;5011097;28;20124;-77
2023/01/09 12:41:55;;;;;;;9.80;2.42;;;;;;;;;;5032969;28;20168;-78
2023/01/09 12:44:24;;;;;;;11.20;3.08;;;;;;;;;;5024920;28;20037;-77
2023/01/09 12:47:15;;;;;;;12.10;2.15;;;;;;;;;;5025632;28;20550;-77
2023/01/09 12:49:58;;;;;;;7.63;1.73;;;;;;;;;;5001823;28;20033;-78
2023/01/09 12:52:27;;;;;;;11.02;2.50;;;;;;;;;;5029899;28;20027;-78
2023/01/09 12:54:56;;;;;;;5.47;2.20;;;;;;;;;;5033936;28;20372;-78
2023/01/09 12:57:37;;;;;;;11.60;2.10;;;;;;;;;;5025297;28;20103;-78
2023/01/09 13:00:05;;;;;;;5.55;1.52;;;;;;;;;;5025288;28;20484;-78
2023/01/09 13:02:31;;;;;;;5.78;1.50;;;;;;;;;;5032599;28;20045;-78
2023/01/09 13:05:17;;;;;;;6.13;1.85;;;;;;;;;;5033076;28;20029;-78
2023/01/09 13:07:53;;;;;;;10.05;2.17;;;;;;;;;;5033114;28;20026;-77
2023/01/09 13:10:33;;;;;;;11.10;1.90;;;;;;;;;;5025634;28;20482;-78
2023/01/09 13:13:05;;;;;;;7.18;1.85;;;;;;;;;;5026247;28;20030;-78
2023/01/09 13:15:52;;;;;;;10.02;1.98;;;;;;;;;;5033285;28;20483;-78
2023/01/09 13:18:20;;;;;;;5.65;2.05;;;;;;;;;;5033398;28;20083;-78
2023/01/09 13:20:48;;;;;;;9.45;1.60;;;;;;;;;;5023019;28;20444;-78
2023/01/09 13:23:20;;;;;;;7.70;2.13;;;;;;;;;;5027097;28;20469;-78
2023/01/09 13:25:50;;;;;;;10.23;2.58;;;;;;;;;;5032828;28;20396;-78
2023/01/09 13:28:16;;;;;;;7.70;2.13;;;;;;;;;;5033550;28;20041;-78
2023/01/09 13:30:45;;;;;;;10.32;2.20;;;;;;;;;;5033904;28;20025;-78
2023/01/09 13:33:27;;;;;;;14.00;2.90;;;;;;;;;;5033423;28;20519;-78
2023/01/09 13:35:54;;;;;;;8.48;2.53;;;;;;;;;;5025258;28;20107;-78
2023/01/09 13:38:22;;;;;;;12.13;2.47;;;;;;;;;;5025995;28;20026;-78
2023/01/09 13:42:34;;;;;;;10.45;2.40;;;;;;;;;;5033235;28;20036;-78
2023/01/09 13:43:57;;;;;;;11.88;2.42;;;;;;;;;;5032701;28;20041;-78
2023/01/09 13:46:32;;;;;;;9.43;2.30;;;;;;;;;;5032428;28;20026;-78
2023/01/09 13:48:58;;;;;;;12.52;2.40;;;;;;;;;;5032803;28;20057;-78
2023/01/09 13:51:55;;;;;;;12.25;3.85;;;;;;;;;;5032700;28;20037;-78
2023/01/09 13:54:39;;;;;;;8.38;3.00;;;;;;;;;;5027119;28;20486;-78
2023/01/09 13:57:17;;;;;;;13.35;2.00;;;;;;;;;;5034474;28;20087;-78
2023/01/09 13:59:43;;;;;;;6.55;2.00;;;;;;;;;;5035368;28;20051;-79
2023/01/09 14:02:28;;;;;;;8.88;3.10;;;;;;;;;;5031291;28;20495;-79
2023/01/09 14:04:54;;;;;;;7.85;2.28;;;;;;;;;;5028099;28;20033;-78
2023/01/09 14:07:25;;;;;;;10.13;2.38;;;;;;;;;;5033763;28;20029;-78
2023/01/09 14:09:53;;;;;;;8.57;2.03;;;;;;;;;;5035515;28;20045;-78
2023/01/09 14:12:19;;;;;;;10.43;2.63;;;;;;;;;;5016614;28;20025;-78
2023/01/09 14:14:46;;;;;;;10.63;1.90;;;;;;;;;;5016270;28;20034;-79
2023/01/09 14:17:25;;;;;;;13.27;2.42;;;;;;;;;;5022908;28;20026;-78
2023/01/09 14:19:56;;;;;;;16.75;2.63;;;;;;;;;;5032464;28;20523;-78
2023/01/09 14:22:32;;;;;;;11.63;2.70;;;;;;;;;;5033571;28;20033;-78
2023/01/09 14:25:07;;;;;;;10.63;3.50;;;;;;;;;;5026228;28;20113;-78
2023/01/09 14:27:50;;;;;;;7.50;2.10;;;;;;;;;;5036999;28;20060;-78
2023/01/09 14:30:26;;;;;;;15.00;2.60;;;;;;;;;;5025945;28;20482;-78
2023/01/09 14:33:24;;;;;;;13.95;2.70;;;;;;;;;;5032437;28;20432;-78
2023/01/09 14:35:59;;;;;;;7.35;1.98;;;;;;;;;;5030052;28;20033;-78
2023/01/09 14:38:26;;;;;;;9.85;2.22;;;;;;;;;;5037197;28;20077;-78
2023/01/09 14:40:54;;;;;;;12.63;2.10;;;;;;;;;;5037732;28;20030;-78
2023/01/09 14:43:26;;;;;;;7.53;2.00;;;;;;;;;;5036578;28;20140;-78
2023/01/09 14:45:54;;;;;;;11.07;2.80;;;;;;;;;;5038222;28;20037;-78
2023/01/09 14:48:21;;;;;;;9.68;2.15;;;;;;;;;;5037619;28;20021;-78
2023/01/09 14:50:53;;;;;;;17.42;2.90;;;;;;;;;;5037491;28;20022;-78
2023/01/09 14:53:22;;;;;;;11.57;2.72;;;;;;;;;;5037896;28;20049;-79
2023/01/09 14:55:49;;;;;;;8.93;2.33;;;;;;;;;;5020292;28;20037;-79
2023/01/09 14:58:29;;;;;;;12.98;3.03;;;;;;;;;;5027555;28;20475;-79
2023/01/09 15:01:00;;;;;;;16.40;2.88;;;;;;;;;;5037633;28;20108;-79
2023/01/09 15:03:28;;;;;;;10.88;2.30;;;;;;;;;;5040543;28;20056;-79
2023/01/09 15:05:54;;;;;;;15.15;3.13;;;;;;;;;;5040792;28;20044;-79